sensor_id;sensor_type;location;lat;lon;timestamp;temperature;humidity
9209;DHT22;4639;48.862;9.188;2022-08-01T00:00:07;22.80;99.90
9209;DHT22;4639;48.862;9.188;2022-08-01T00:02:33;22.70;99.90
9209;DHT22;4639;48.862;9.188;2022-08-01T00:04:58;22.60;99.90
9209;DHT22;4639;48.862;9.188;2022-08-01T00:07:25;22.60;99.90
9209;DHT22;4639;48.862;9.188;2022-08-01T00:09:51;22.50;99.90
9209;DHT22;4639;48.862;9.188;2022-08-01T00:12:17;22.50;99.90
9209;DHT22;4639;48.862;9.188;2022-08-01T00:14:42;22.50;99.90
9209;DHT22;4639;48.862;9.188;2022-08-01T00:17:08;22.50;99.90
9209;DHT22;4639;48.862;9.188;2022-08-01T00:19:34;22.50;99.90
9209;DHT22;4639;48.862;9.188;2022-08-01T00:21:59;22.50;99.90
9209;DHT22;4639;48.862;9.188;2022-08-01T00:24:25;22.40;99.90
9209;DHT22;4639;48.862;9.188;2022-08-01T00:26:51;22.40;99.90
9209;DHT22;4639;48.862;9.188;2022-08-01T00:29:16;22.30;99.90
9209;DHT22;4639;48.862;9.188;2022-08-01T00:31:42;22.30;99.90
9209;DHT22;4639;48.862;9.188;2022-08-01T00:34:08;22.30;99.90
9209;DHT22;4639;48.862;9.188;2022-08-01T00:36:33;22.30;99.90
9209;DHT22;4639;48.862;9.188;2022-08-01T00:38:59;22.30;99.90
9209;DHT22;4639;48.862;9.188;2022-08-01T00:41:25;22.30;99.90
9209;DHT22;4639;48.862;9.188;2022-08-01T00:43:50;22.30;99.90
9209;DHT22;4639;48.862;9.188;2022-08-01T00:46:16;22.30;99.90
9209;DHT22;4639;48.862;9.188;2022-08-01T00:48:41;22.20;99.90
9209;DHT22;4639;48.862;9.188;2022-08-01T00:51:07;22.30;99.90
9209;DHT22;4639;48.862;9.188;2022-08-01T00:53:33;22.20;99.90
9209;DHT22;4639;48.862;9.188;2022-08-01T00:56:00;22.10;99.90
9209;DHT22;4639;48.862;9.188;2022-08-01T00:58:26;22.10;99.90
9209;DHT22;4639;48.862;9.188;2022-08-01T01:00:54;22.10;99.90
9209;DHT22;4639;48.862;9.188;2022-08-01T01:03:20;22.00;99.90
9209;DHT22;4639;48.862;9.188;2022-08-01T01:05:55;22.10;99.90
9209;DHT22;4639;48.862;9.188;2022-08-01T01:08:30;22.00;99.90
9209;DHT22;4639;48.862;9.188;2022-08-01T01:11:31;22.00;99.90
9209;DHT22;4639;48.862;9.188;2022-08-01T01:14:10;22.00;99.90
9209;DHT22;4639;48.862;9.188;2022-08-01T01:16:40;22.00;99.90
9209;DHT22;4639;48.862;9.188;2022-08-01T01:19:10;21.90;99.90
9209;DHT22;4639;48.862;9.188;2022-08-01T01:24:47;22.00;99.90
9209;DHT22;4639;48.862;9.188;2022-08-01T01:27:21;21.90;99.90
9209;DHT22;4639;48.862;9.188;2022-08-01T01:29:55;21.90;99.90
9209;DHT22;4639;48.862;9.188;2022-08-01T01:32:35;21.90;99.90
9209;DHT22;4639;48.862;9.188;2022-08-01T01:35:07;21.90;99.90
9209;DHT22;4639;48.862;9.188;2022-08-01T01:37:34;21.90;99.90
9209;DHT22;4639;48.862;9.188;2022-08-01T01:40:01;21.90;99.90
9209;DHT22;4639;48.862;9.188;2022-08-01T01:42:28;21.90;99.90
9209;DHT22;4639;48.862;9.188;2022-08-01T01:44:55;22.00;99.90
9209;DHT22;4639;48.862;9.188;2022-08-01T01:47:23;21.90;99.90
9209;DHT22;4639;48.862;9.188;2022-08-01T01:49:50;21.90;99.90
9209;DHT22;4639;48.862;9.188;2022-08-01T01:52:18;21.80;99.90
9209;DHT22;4639;48.862;9.188;2022-08-01T01:54:47;21.70;99.90
9209;DHT22;4639;48.862;9.188;2022-08-01T01:57:15;21.80;99.90
9209;DHT22;4639;48.862;9.188;2022-08-01T01:59:42;21.80;99.90
9209;DHT22;4639;48.862;9.188;2022-08-01T02:02:10;21.80;99.90
9209;DHT22;4639;48.862;9.188;2022-08-01T02:04:39;21.80;99.90
9209;DHT22;4639;48.862;9.188;2022-08-01T02:07:06;21.80;99.90
9209;DHT22;4639;48.862;9.188;2022-08-01T02:09:35;21.90;99.90
9209;DHT22;4639;48.862;9.188;2022-08-01T02:12:03;21.90;99.90
9209;DHT22;4639;48.862;9.188;2022-08-01T02:14:33;21.80;99.90
9209;DHT22;4639;48.862;9.188;2022-08-01T02:17:00;21.80;99.90
9209;DHT22;4639;48.862;9.188;2022-08-01T02:19:29;21.90;99.90
9209;DHT22;4639;48.862;9.188;2022-08-01T02:22:06;22.00;99.90
9209;DHT22;4639;48.862;9.188;2022-08-01T02:24:49;21.90;99.90
9209;DHT22;4639;48.862;9.188;2022-08-01T02:27:20;21.90;99.90
9209;DHT22;4639;48.862;9.188;2022-08-01T02:29:52;21.80;99.90
9209;DHT22;4639;48.862;9.188;2022-08-01T02:32:35;21.80;99.90
9209;DHT22;4639;48.862;9.188;2022-08-01T02:35:02;21.80;99.90
9209;DHT22;4639;48.862;9.188;2022-08-01T02:37:31;21.80;99.90
9209;DHT22;4639;48.862;9.188;2022-08-01T02:39:59;21.60;99.90
9209;DHT22;4639;48.862;9.188;2022-08-01T02:42:26;21.50;99.90
9209;DHT22;4639;48.862;9.188;2022-08-01T02:44:53;21.50;99.90
9209;DHT22;4639;48.862;9.188;2022-08-01T02:47:20;21.60;99.90
9209;DHT22;4639;48.862;9.188;2022-08-01T02:49:49;21.60;99.90
9209;DHT22;4639;48.862;9.188;2022-08-01T02:52:16;21.60;99.90
9209;DHT22;4639;48.862;9.188;2022-08-01T02:54:48;21.60;99.90
9209;DHT22;4639;48.862;9.188;2022-08-01T02:57:16;21.50;99.90
9209;DHT22;4639;48.862;9.188;2022-08-01T02:59:43;21.50;99.90
9209;DHT22;4639;48.862;9.188;2022-08-01T03:02:10;21.50;99.90
9209;DHT22;4639;48.862;9.188;2022-08-01T03:04:38;21.40;99.90
9209;DHT22;4639;48.862;9.188;2022-08-01T03:07:07;21.20;99.90
9209;DHT22;4639;48.862;9.188;2022-08-01T03:09:36;21.00;99.90
9209;DHT22;4639;48.862;9.188;2022-08-01T03:12:05;20.90;99.90
9209;DHT22;4639;48.862;9.188;2022-08-01T03:14:34;20.80;99.90
9209;DHT22;4639;48.862;9.188;2022-08-01T03:17:01;20.80;99.90
9209;DHT22;4639;48.862;9.188;2022-08-01T03:19:27;20.90;99.90
9209;DHT22;4639;48.862;9.188;2022-08-01T03:21:56;20.90;99.90
9209;DHT22;4639;48.862;9.188;2022-08-01T03:24:24;20.90;99.90
9209;DHT22;4639;48.862;9.188;2022-08-01T03:26:52;20.90;99.90
9209;DHT22;4639;48.862;9.188;2022-08-01T03:29:21;21.00;99.90
9209;DHT22;4639;48.862;9.188;2022-08-01T03:31:48;21.00;99.90
9209;DHT22;4639;48.862;9.188;2022-08-01T03:34:15;21.00;99.90
9209;DHT22;4639;48.862;9.188;2022-08-01T03:37:09;20.90;99.90
9209;DHT22;4639;48.862;9.188;2022-08-01T03:39:50;21.00;99.90
9209;DHT22;4639;48.862;9.188;2022-08-01T03:42:20;21.00;99.90
9209;DHT22;4639;48.862;9.188;2022-08-01T03:44:59;21.00;99.90
9209;DHT22;4639;48.862;9.188;2022-08-01T03:47:31;21.00;99.90
9209;DHT22;4639;48.862;9.188;2022-08-01T03:49:58;21.00;99.90
9209;DHT22;4639;48.862;9.188;2022-08-01T03:52:25;21.10;99.90
9209;DHT22;4639;48.862;9.188;2022-08-01T03:54:55;21.00;99.90
9209;DHT22;4639;48.862;9.188;2022-08-01T03:57:22;21.00;99.90
9209;DHT22;4639;48.862;9.188;2022-08-01T03:59:49;20.80;99.90
9209;DHT22;4639;48.862;9.188;2022-08-01T04:02:15;20.80;99.90
9209;DHT22;4639;48.862;9.188;2022-08-01T04:04:42;20.70;99.90
9209;DHT22;4639;48.862;9.188;2022-08-01T04:07:29;20.70;99.90
9209;DHT22;4639;48.862;9.188;2022-08-01T04:09:55;20.70;99.90
9209;DHT22;4639;48.862;9.188;2022-08-01T04:12:22;20.70;99.90
9209;DHT22;4639;48.862;9.188;2022-08-01T04:14:48;20.70;99.90
9209;DHT22;4639;48.862;9.188;2022-08-01T04:17:17;20.70;99.90
9209;DHT22;4639;48.862;9.188;2022-08-01T04:19:43;20.70;99.90
9209;DHT22;4639;48.862;9.188;2022-08-01T04:22:11;20.70;99.90
9209;DHT22;4639;48.862;9.188;2022-08-01T04:24:39;20.80;99.90
9209;DHT22;4639;48.862;9.188;2022-08-01T04:27:11;20.70;99.90
9209;DHT22;4639;48.862;9.188;2022-08-01T04:29:39;20.70;99.90
9209;DHT22;4639;48.862;9.188;2022-08-01T04:32:08;20.80;99.90
9209;DHT22;4639;48.862;9.188;2022-08-01T04:34:36;20.70;99.90
9209;DHT22;4639;48.862;9.188;2022-08-01T04:37:03;20.70;99.90
9209;DHT22;4639;48.862;9.188;2022-08-01T04:39:31;20.70;99.90
9209;DHT22;4639;48.862;9.188;2022-08-01T04:41:59;20.70;99.90
9209;DHT22;4639;48.862;9.188;2022-08-01T04:44:29;20.60;99.90
9209;DHT22;4639;48.862;9.188;2022-08-01T04:46:59;20.70;99.90
9209;DHT22;4639;48.862;9.188;2022-08-01T04:49:25;20.70;99.90
9209;DHT22;4639;48.862;9.188;2022-08-01T04:51:54;20.80;99.90
9209;DHT22;4639;48.862;9.188;2022-08-01T04:54:24;20.90;99.90
9209;DHT22;4639;48.862;9.188;2022-08-01T04:56:50;21.10;99.90
9209;DHT22;4639;48.862;9.188;2022-08-01T04:59:16;21.00;99.90
9209;DHT22;4639;48.862;9.188;2022-08-01T05:02:00;21.10;99.90
9209;DHT22;4639;48.862;9.188;2022-08-01T05:04:26;21.20;99.90
9209;DHT22;4639;48.862;9.188;2022-08-01T05:06:51;21.20;99.90
9209;DHT22;4639;48.862;9.188;2022-08-01T05:09:17;21.30;99.90
9209;DHT22;4639;48.862;9.188;2022-08-01T05:11:42;21.30;99.90
9209;DHT22;4639;48.862;9.188;2022-08-01T05:14:08;21.30;99.90
9209;DHT22;4639;48.862;9.188;2022-08-01T05:16:34;21.30;99.90
9209;DHT22;4639;48.862;9.188;2022-08-01T05:18:59;21.30;99.90
9209;DHT22;4639;48.862;9.188;2022-08-01T05:21:25;21.40;99.90
9209;DHT22;4639;48.862;9.188;2022-08-01T05:23:50;21.50;99.90
9209;DHT22;4639;48.862;9.188;2022-08-01T05:26:16;21.50;99.90
9209;DHT22;4639;48.862;9.188;2022-08-01T05:28:41;21.70;99.90
9209;DHT22;4639;48.862;9.188;2022-08-01T05:31:07;21.80;99.90
9209;DHT22;4639;48.862;9.188;2022-08-01T05:33:33;21.80;99.90
9209;DHT22;4639;48.862;9.188;2022-08-01T05:35:58;21.80;99.90
9209;DHT22;4639;48.862;9.188;2022-08-01T05:38:24;21.80;99.90
9209;DHT22;4639;48.862;9.188;2022-08-01T05:40:50;21.80;99.90
9209;DHT22;4639;48.862;9.188;2022-08-01T05:43:15;21.80;99.90
9209;DHT22;4639;48.862;9.188;2022-08-01T05:45:41;21.80;99.90
9209;DHT22;4639;48.862;9.188;2022-08-01T05:48:07;21.90;99.90
9209;DHT22;4639;48.862;9.188;2022-08-01T05:50:33;22.00;99.90
9209;DHT22;4639;48.862;9.188;2022-08-01T05:52:59;22.00;99.90
9209;DHT22;4639;48.862;9.188;2022-08-01T05:55:24;22.10;99.90
9209;DHT22;4639;48.862;9.188;2022-08-01T05:57:50;22.00;99.90
9209;DHT22;4639;48.862;9.188;2022-08-01T06:00:15;22.10;99.90
9209;DHT22;4639;48.862;9.188;2022-08-01T06:02:44;22.20;99.90
9209;DHT22;4639;48.862;9.188;2022-08-01T06:05:10;22.20;99.90
9209;DHT22;4639;48.862;9.188;2022-08-01T06:07:36;22.20;99.90
9209;DHT22;4639;48.862;9.188;2022-08-01T06:10:04;22.20;99.90
9209;DHT22;4639;48.862;9.188;2022-08-01T06:12:33;22.30;99.90
9209;DHT22;4639;48.862;9.188;2022-08-01T06:14:58;22.30;99.90
9209;DHT22;4639;48.862;9.188;2022-08-01T06:17:24;22.40;99.90
9209;DHT22;4639;48.862;9.188;2022-08-01T06:19:49;22.50;99.90
9209;DHT22;4639;48.862;9.188;2022-08-01T06:22:15;22.50;99.90
9209;DHT22;4639;48.862;9.188;2022-08-01T06:24:41;22.50;99.90
9209;DHT22;4639;48.862;9.188;2022-08-01T06:27:06;22.50;99.90
9209;DHT22;4639;48.862;9.188;2022-08-01T06:29:32;22.60;99.90
9209;DHT22;4639;48.862;9.188;2022-08-01T06:31:58;22.70;99.90
9209;DHT22;4639;48.862;9.188;2022-08-01T06:34:23;22.80;99.90
9209;DHT22;4639;48.862;9.188;2022-08-01T06:36:49;22.80;99.90
9209;DHT22;4639;48.862;9.188;2022-08-01T06:39:15;22.90;99.90
9209;DHT22;4639;48.862;9.188;2022-08-01T06:41:40;23.00;99.90
9209;DHT22;4639;48.862;9.188;2022-08-01T06:44:14;23.00;99.90
9209;DHT22;4639;48.862;9.188;2022-08-01T06:46:40;23.00;99.90
9209;DHT22;4639;48.862;9.188;2022-08-01T06:49:06;23.00;99.90
9209;DHT22;4639;48.862;9.188;2022-08-01T06:51:31;23.00;99.90
9209;DHT22;4639;48.862;9.188;2022-08-01T06:53:57;23.10;99.90
9209;DHT22;4639;48.862;9.188;2022-08-01T06:56:23;23.20;99.90
9209;DHT22;4639;48.862;9.188;2022-08-01T06:58:50;23.40;99.90
9209;DHT22;4639;48.862;9.188;2022-08-01T07:01:16;23.50;99.90
9209;DHT22;4639;48.862;9.188;2022-08-01T07:03:41;23.70;99.90
9209;DHT22;4639;48.862;9.188;2022-08-01T07:06:07;23.70;99.90
9209;DHT22;4639;48.862;9.188;2022-08-01T07:08:33;23.70;99.90
9209;DHT22;4639;48.862;9.188;2022-08-01T07:10:59;23.60;99.90
9209;DHT22;4639;48.862;9.188;2022-08-01T07:13:28;23.80;99.90
9209;DHT22;4639;48.862;9.188;2022-08-01T07:15:56;23.90;99.90
9209;DHT22;4639;48.862;9.188;2022-08-01T07:18:22;24.00;99.90
9209;DHT22;4639;48.862;9.188;2022-08-01T07:20:49;24.00;99.90
9209;DHT22;4639;48.862;9.188;2022-08-01T07:23:15;24.10;99.90
9209;DHT22;4639;48.862;9.188;2022-08-01T07:25:41;24.10;99.90
9209;DHT22;4639;48.862;9.188;2022-08-01T07:28:06;24.00;99.90
9209;DHT22;4639;48.862;9.188;2022-08-01T07:30:32;23.90;99.90
9209;DHT22;4639;48.862;9.188;2022-08-01T07:32:58;23.90;99.90
9209;DHT22;4639;48.862;9.188;2022-08-01T07:35:23;23.90;99.90
9209;DHT22;4639;48.862;9.188;2022-08-01T07:37:49;23.90;99.90
9209;DHT22;4639;48.862;9.188;2022-08-01T07:40:16;24.00;99.90
9209;DHT22;4639;48.862;9.188;2022-08-01T07:42:42;23.90;99.90
9209;DHT22;4639;48.862;9.188;2022-08-01T07:45:10;23.90;99.90
9209;DHT22;4639;48.862;9.188;2022-08-01T07:47:36;24.10;99.90
9209;DHT22;4639;48.862;9.188;2022-08-01T07:50:04;24.30;99.90
9209;DHT22;4639;48.862;9.188;2022-08-01T07:52:30;24.50;99.90
9209;DHT22;4639;48.862;9.188;2022-08-01T07:54:56;24.70;99.90
9209;DHT22;4639;48.862;9.188;2022-08-01T07:57:23;24.80;99.90
9209;DHT22;4639;48.862;9.188;2022-08-01T07:59:49;24.70;99.90
9209;DHT22;4639;48.862;9.188;2022-08-01T08:02:15;24.80;99.90
9209;DHT22;4639;48.862;9.188;2022-08-01T08:04:41;24.90;99.90
9209;DHT22;4639;48.862;9.188;2022-08-01T08:07:06;24.80;99.90
9209;DHT22;4639;48.862;9.188;2022-08-01T08:09:32;24.80;99.90
9209;DHT22;4639;48.862;9.188;2022-08-01T08:11:57;24.60;99.90
9209;DHT22;4639;48.862;9.188;2022-08-01T08:14:23;24.80;99.90
9209;DHT22;4639;48.862;9.188;2022-08-01T08:16:50;25.10;99.90
9209;DHT22;4639;48.862;9.188;2022-08-01T08:19:16;25.20;99.90
9209;DHT22;4639;48.862;9.188;2022-08-01T08:21:41;25.10;99.90
9209;DHT22;4639;48.862;9.188;2022-08-01T08:24:08;24.90;99.90
9209;DHT22;4639;48.862;9.188;2022-08-01T08:26:47;24.80;99.90
9209;DHT22;4639;48.862;9.188;2022-08-01T08:29:13;24.90;99.90
9209;DHT22;4639;48.862;9.188;2022-08-01T08:31:39;25.10;99.90
9209;DHT22;4639;48.862;9.188;2022-08-01T08:34:05;25.40;99.90
9209;DHT22;4639;48.862;9.188;2022-08-01T08:36:31;25.70;99.90
9209;DHT22;4639;48.862;9.188;2022-08-01T08:38:57;25.90;99.90
9209;DHT22;4639;48.862;9.188;2022-08-01T08:41:23;26.10;99.90
9209;DHT22;4639;48.862;9.188;2022-08-01T08:43:48;26.10;99.90
9209;DHT22;4639;48.862;9.188;2022-08-01T08:46:15;26.20;99.90
9209;DHT22;4639;48.862;9.188;2022-08-01T08:48:41;26.30;99.90
9209;DHT22;4639;48.862;9.188;2022-08-01T08:51:08;26.40;99.90
9209;DHT22;4639;48.862;9.188;2022-08-01T08:53:35;26.30;99.90
9209;DHT22;4639;48.862;9.188;2022-08-01T08:56:01;26.30;99.90
9209;DHT22;4639;48.862;9.188;2022-08-01T08:58:28;26.40;99.90
9209;DHT22;4639;48.862;9.188;2022-08-01T09:00:54;26.50;99.90
9209;DHT22;4639;48.862;9.188;2022-08-01T09:03:20;26.80;99.90
9209;DHT22;4639;48.862;9.188;2022-08-01T09:05:45;26.90;99.90
9209;DHT22;4639;48.862;9.188;2022-08-01T09:08:11;27.20;99.90
9209;DHT22;4639;48.862;9.188;2022-08-01T09:10:37;27.30;99.90
9209;DHT22;4639;48.862;9.188;2022-08-01T09:13:05;27.40;99.90
9209;DHT22;4639;48.862;9.188;2022-08-01T09:15:50;27.40;99.90
9209;DHT22;4639;48.862;9.188;2022-08-01T09:21:17;27.50;99.90
9209;DHT22;4639;48.862;9.188;2022-08-01T09:23:50;27.50;99.90
9209;DHT22;4639;48.862;9.188;2022-08-01T09:26:19;27.50;99.90
9209;DHT22;4639;48.862;9.188;2022-08-01T09:28:46;27.50;99.90
9209;DHT22;4639;48.862;9.188;2022-08-01T09:31:14;27.70;99.90
9209;DHT22;4639;48.862;9.188;2022-08-01T09:33:59;27.70;99.90
9209;DHT22;4639;48.862;9.188;2022-08-01T09:36:44;27.50;99.90
9209;DHT22;4639;48.862;9.188;2022-08-01T09:39:14;27.40;99.90
9209;DHT22;4639;48.862;9.188;2022-08-01T09:41:40;27.20;99.90
9209;DHT22;4639;48.862;9.188;2022-08-01T09:44:05;26.80;99.90
9209;DHT22;4639;48.862;9.188;2022-08-01T09:46:31;26.40;99.90
9209;DHT22;4639;48.862;9.188;2022-08-01T09:49:02;26.40;99.90
9209;DHT22;4639;48.862;9.188;2022-08-01T09:51:33;26.60;99.90
9209;DHT22;4639;48.862;9.188;2022-08-01T09:54:00;26.70;99.90
9209;DHT22;4639;48.862;9.188;2022-08-01T09:56:26;27.00;99.90
9209;DHT22;4639;48.862;9.188;2022-08-01T09:59:00;27.30;99.90
9209;DHT22;4639;48.862;9.188;2022-08-01T10:01:26;27.30;99.90
9209;DHT22;4639;48.862;9.188;2022-08-01T10:04:12;27.30;99.90
9209;DHT22;4639;48.862;9.188;2022-08-01T10:06:40;27.60;99.90
9209;DHT22;4639;48.862;9.188;2022-08-01T10:09:08;27.80;99.90
9209;DHT22;4639;48.862;9.188;2022-08-01T10:11:35;27.90;99.90
9209;DHT22;4639;48.862;9.188;2022-08-01T10:14:04;28.00;99.90
9209;DHT22;4639;48.862;9.188;2022-08-01T10:16:30;28.30;99.90
9209;DHT22;4639;48.862;9.188;2022-08-01T10:18:57;28.40;99.90
9209;DHT22;4639;48.862;9.188;2022-08-01T10:21:25;28.50;99.90
9209;DHT22;4639;48.862;9.188;2022-08-01T10:23:54;28.80;99.90
9209;DHT22;4639;48.862;9.188;2022-08-01T10:26:21;29.00;99.90
9209;DHT22;4639;48.862;9.188;2022-08-01T10:28:50;29.30;99.90
9209;DHT22;4639;48.862;9.188;2022-08-01T10:31:17;29.40;99.90
9209;DHT22;4639;48.862;9.188;2022-08-01T10:33:43;29.50;99.90
9209;DHT22;4639;48.862;9.188;2022-08-01T10:36:09;29.70;99.90
9209;DHT22;4639;48.862;9.188;2022-08-01T10:38:35;29.60;99.90
9209;DHT22;4639;48.862;9.188;2022-08-01T10:41:03;29.70;99.90
9209;DHT22;4639;48.862;9.188;2022-08-01T10:43:29;30.00;99.90
9209;DHT22;4639;48.862;9.188;2022-08-01T10:45:55;30.30;99.90
9209;DHT22;4639;48.862;9.188;2022-08-01T10:48:28;30.30;99.90
9209;DHT22;4639;48.862;9.188;2022-08-01T10:50:59;30.10;99.90
9209;DHT22;4639;48.862;9.188;2022-08-01T10:53:26;29.60;99.90
9209;DHT22;4639;48.862;9.188;2022-08-01T10:56:03;29.50;99.90
9209;DHT22;4639;48.862;9.188;2022-08-01T10:58:37;29.10;99.90
9209;DHT22;4639;48.862;9.188;2022-08-01T11:01:29;29.20;99.90
9209;DHT22;4639;48.862;9.188;2022-08-01T11:06:50;29.80;99.90
9209;DHT22;4639;48.862;9.188;2022-08-01T11:09:24;30.40;99.90
9209;DHT22;4639;48.862;9.188;2022-08-01T11:12:06;31.00;99.90
9209;DHT22;4639;48.862;9.188;2022-08-01T11:17:40;31.20;99.90
9209;DHT22;4639;48.862;9.188;2022-08-01T11:20:19;30.90;99.90
9209;DHT22;4639;48.862;9.188;2022-08-01T11:30:43;31.60;99.90
9209;DHT22;4639;48.862;9.188;2022-08-01T11:33:10;31.30;99.90
9209;DHT22;4639;48.862;9.188;2022-08-01T11:35:36;31.00;99.90
9209;DHT22;4639;48.862;9.188;2022-08-01T11:38:41;30.50;99.90
9209;DHT22;4639;48.862;9.188;2022-08-01T11:41:30;30.60;99.90
9209;DHT22;4639;48.862;9.188;2022-08-01T11:43:58;30.90;99.90
9209;DHT22;4639;48.862;9.188;2022-08-01T11:49:25;30.90;99.90
9209;DHT22;4639;48.862;9.188;2022-08-01T11:54:53;31.20;99.90
9209;DHT22;4639;48.862;9.188;2022-08-01T11:57:25;31.20;99.90
9209;DHT22;4639;48.862;9.188;2022-08-01T11:59:54;31.10;99.90
9209;DHT22;4639;48.862;9.188;2022-08-01T12:02:31;31.10;99.90
9209;DHT22;4639;48.862;9.188;2022-08-01T12:05:03;31.10;99.90
9209;DHT22;4639;48.862;9.188;2022-08-01T12:07:30;31.10;99.90
9209;DHT22;4639;48.862;9.188;2022-08-01T12:10:08;31.10;99.90
9209;DHT22;4639;48.862;9.188;2022-08-01T12:12:35;31.40;99.90
9209;DHT22;4639;48.862;9.188;2022-08-01T12:15:07;31.40;99.90
9209;DHT22;4639;48.862;9.188;2022-08-01T12:17:41;30.80;99.90
9209;DHT22;4639;48.862;9.188;2022-08-01T12:20:13;30.40;99.90
9209;DHT22;4639;48.862;9.188;2022-08-01T12:22:40;30.10;99.90
9209;DHT22;4639;48.862;9.188;2022-08-01T12:25:07;30.10;99.90
9209;DHT22;4639;48.862;9.188;2022-08-01T12:27:34;30.30;99.90
9209;DHT22;4639;48.862;9.188;2022-08-01T12:30:00;30.70;99.90
9209;DHT22;4639;48.862;9.188;2022-08-01T12:32:31;31.10;99.90
9209;DHT22;4639;48.862;9.188;2022-08-01T12:37:47;31.60;99.90
9209;DHT22;4639;48.862;9.188;2022-08-01T12:40:22;31.90;99.90
9209;DHT22;4639;48.862;9.188;2022-08-01T12:42:52;32.00;99.90
9209;DHT22;4639;48.862;9.188;2022-08-01T12:45:26;31.90;99.90
9209;DHT22;4639;48.862;9.188;2022-08-01T12:47:53;31.70;99.90
9209;DHT22;4639;48.862;9.188;2022-08-01T12:50:21;31.90;99.90
9209;DHT22;4639;48.862;9.188;2022-08-01T12:52:48;32.00;99.90
9209;DHT22;4639;48.862;9.188;2022-08-01T12:55:25;32.40;99.90
9209;DHT22;4639;48.862;9.188;2022-08-01T12:58:07;32.80;99.90
9209;DHT22;4639;48.862;9.188;2022-08-01T13:00:34;33.00;99.90
9209;DHT22;4639;48.862;9.188;2022-08-01T13:03:11;33.00;99.90
9209;DHT22;4639;48.862;9.188;2022-08-01T13:08:15;33.40;99.90
9209;DHT22;4639;48.862;9.188;2022-08-01T13:10:42;33.40;99.90
9209;DHT22;4639;48.862;9.188;2022-08-01T13:13:08;33.20;99.90
9209;DHT22;4639;48.862;9.188;2022-08-01T13:15:37;32.70;99.90
9209;DHT22;4639;48.862;9.188;2022-08-01T13:18:27;32.30;99.90
9209;DHT22;4639;48.862;9.188;2022-08-01T13:23:36;32.30;99.90
9209;DHT22;4639;48.862;9.188;2022-08-01T13:26:03;32.30;99.90
9209;DHT22;4639;48.862;9.188;2022-08-01T13:28:29;32.20;99.90
9209;DHT22;4639;48.862;9.188;2022-08-01T13:30:59;31.60;99.90
9209;DHT22;4639;48.862;9.188;2022-08-01T13:33:28;31.70;99.90
9209;DHT22;4639;48.862;9.188;2022-08-01T13:36:05;32.10;99.90
9209;DHT22;4639;48.862;9.188;2022-08-01T13:38:30;32.60;99.90
9209;DHT22;4639;48.862;9.188;2022-08-01T13:41:14;32.90;99.90
9209;DHT22;4639;48.862;9.188;2022-08-01T13:43:41;33.30;99.90
9209;DHT22;4639;48.862;9.188;2022-08-01T13:46:06;33.40;99.90
9209;DHT22;4639;48.862;9.188;2022-08-01T13:48:32;33.70;99.90
9209;DHT22;4639;48.862;9.188;2022-08-01T13:50:58;34.00;99.90
9209;DHT22;4639;48.862;9.188;2022-08-01T13:53:24;34.30;99.90
9209;DHT22;4639;48.862;9.188;2022-08-01T13:55:50;34.60;99.20
9209;DHT22;4639;48.862;9.188;2022-08-01T13:58:15;34.60;99.50
9209;DHT22;4639;48.862;9.188;2022-08-01T14:00:41;34.40;99.70
9209;DHT22;4639;48.862;9.188;2022-08-01T14:03:07;34.40;99.30
9209;DHT22;4639;48.862;9.188;2022-08-01T14:05:35;34.20;99.90
9209;DHT22;4639;48.862;9.188;2022-08-01T14:08:01;33.90;99.80
9209;DHT22;4639;48.862;9.188;2022-08-01T14:10:26;33.10;99.90
9209;DHT22;4639;48.862;9.188;2022-08-01T14:12:52;32.70;99.90
9209;DHT22;4639;48.862;9.188;2022-08-01T14:15:18;32.70;99.90
9209;DHT22;4639;48.862;9.188;2022-08-01T14:17:44;32.60;99.90
9209;DHT22;4639;48.862;9.188;2022-08-01T14:20:10;32.90;99.90
9209;DHT22;4639;48.862;9.188;2022-08-01T14:22:35;32.90;99.90
9209;DHT22;4639;48.862;9.188;2022-08-01T14:25:01;33.00;99.90
9209;DHT22;4639;48.862;9.188;2022-08-01T14:27:28;33.10;99.90
9209;DHT22;4639;48.862;9.188;2022-08-01T14:29:56;33.40;99.90
9209;DHT22;4639;48.862;9.188;2022-08-01T14:32:22;33.30;99.90
9209;DHT22;4639;48.862;9.188;2022-08-01T14:34:47;33.40;99.90
9209;DHT22;4639;48.862;9.188;2022-08-01T14:37:13;33.50;99.90
9209;DHT22;4639;48.862;9.188;2022-08-01T14:39:39;32.90;99.90
9209;DHT22;4639;48.862;9.188;2022-08-01T14:42:04;32.30;99.90
9209;DHT22;4639;48.862;9.188;2022-08-01T14:44:30;31.90;99.90
9209;DHT22;4639;48.862;9.188;2022-08-01T14:46:55;31.70;99.90
9209;DHT22;4639;48.862;9.188;2022-08-01T14:49:21;31.80;99.90
9209;DHT22;4639;48.862;9.188;2022-08-01T14:51:47;32.10;99.90
9209;DHT22;4639;48.862;9.188;2022-08-01T14:54:12;32.00;99.90
9209;DHT22;4639;48.862;9.188;2022-08-01T14:56:38;31.90;99.90
9209;DHT22;4639;48.862;9.188;2022-08-01T14:59:04;31.70;99.90
9209;DHT22;4639;48.862;9.188;2022-08-01T15:01:29;31.40;99.90
9209;DHT22;4639;48.862;9.188;2022-08-01T15:03:55;31.10;99.90
9209;DHT22;4639;48.862;9.188;2022-08-01T15:06:21;31.10;99.90
9209;DHT22;4639;48.862;9.188;2022-08-01T15:08:47;31.00;99.90
9209;DHT22;4639;48.862;9.188;2022-08-01T15:11:12;31.00;99.90
9209;DHT22;4639;48.862;9.188;2022-08-01T15:13:38;30.90;99.90
9209;DHT22;4639;48.862;9.188;2022-08-01T15:16:04;30.90;99.90
9209;DHT22;4639;48.862;9.188;2022-08-01T15:18:29;30.90;99.90
9209;DHT22;4639;48.862;9.188;2022-08-01T15:20:55;31.00;99.90
9209;DHT22;4639;48.862;9.188;2022-08-01T15:23:22;31.40;99.90
9209;DHT22;4639;48.862;9.188;2022-08-01T15:25:48;31.30;99.90
9209;DHT22;4639;48.862;9.188;2022-08-01T15:28:14;31.40;99.90
9209;DHT22;4639;48.862;9.188;2022-08-01T15:30:40;31.80;99.90
9209;DHT22;4639;48.862;9.188;2022-08-01T15:33:06;32.30;99.90
9209;DHT22;4639;48.862;9.188;2022-08-01T15:35:32;32.10;99.90
9209;DHT22;4639;48.862;9.188;2022-08-01T15:37:57;31.60;99.90
9209;DHT22;4639;48.862;9.188;2022-08-01T15:40:23;31.20;99.90
9209;DHT22;4639;48.862;9.188;2022-08-01T15:42:49;30.70;99.90
9209;DHT22;4639;48.862;9.188;2022-08-01T15:45:14;30.30;99.90
9209;DHT22;4639;48.862;9.188;2022-08-01T15:47:43;30.10;99.90
9209;DHT22;4639;48.862;9.188;2022-08-01T15:50:09;30.00;99.90
9209;DHT22;4639;48.862;9.188;2022-08-01T15:52:35;30.10;99.90
9209;DHT22;4639;48.862;9.188;2022-08-01T15:55:00;30.00;99.90
9209;DHT22;4639;48.862;9.188;2022-08-01T15:57:26;30.00;99.90
9209;DHT22;4639;48.862;9.188;2022-08-01T15:59:52;29.90;99.90
9209;DHT22;4639;48.862;9.188;2022-08-01T16:02:18;29.80;99.90
9209;DHT22;4639;48.862;9.188;2022-08-01T16:04:43;29.60;99.90
9209;DHT22;4639;48.862;9.188;2022-08-01T16:07:10;29.50;99.90
9209;DHT22;4639;48.862;9.188;2022-08-01T16:09:36;29.40;99.90
9209;DHT22;4639;48.862;9.188;2022-08-01T16:12:02;29.30;99.90
9209;DHT22;4639;48.862;9.188;2022-08-01T16:14:27;29.30;99.90
9209;DHT22;4639;48.862;9.188;2022-08-01T16:16:53;29.50;99.90
9209;DHT22;4639;48.862;9.188;2022-08-01T16:19:18;29.60;99.90
9209;DHT22;4639;48.862;9.188;2022-08-01T16:21:44;29.70;99.90
9209;DHT22;4639;48.862;9.188;2022-08-01T16:24:10;29.80;99.90
9209;DHT22;4639;48.862;9.188;2022-08-01T16:26:35;29.70;99.90
9209;DHT22;4639;48.862;9.188;2022-08-01T16:29:01;29.70;99.90
9209;DHT22;4639;48.862;9.188;2022-08-01T16:31:26;29.70;99.90
9209;DHT22;4639;48.862;9.188;2022-08-01T16:33:52;29.90;99.90
9209;DHT22;4639;48.862;9.188;2022-08-01T16:36:18;29.80;99.90
9209;DHT22;4639;48.862;9.188;2022-08-01T16:38:44;29.80;99.90
9209;DHT22;4639;48.862;9.188;2022-08-01T16:41:10;29.60;99.90